sensor_id;sensor_type;location;lat;lon;timestamp;P1;durP1;ratioP1;P2;durP2;ratioP2
27728;SDS011;15126;42.186;24.340;2024-01-15T00:01:16;71.80;;;28.33;;
27728;SDS011;15126;42.186;24.340;2024-01-15T00:03:41;68.72;;;29.13;;
27728;SDS011;15126;42.186;24.340;2024-01-15T00:06:06;60.25;;;26.15;;
27728;SDS011;15126;42.186;24.340;2024-01-15T00:08:32;60.38;;;25.38;;
27728;SDS011;15126;42.186;24.340;2024-01-15T00:10:57;41.70;;;18.08;;
27728;SDS011;15126;42.186;24.340;2024-01-15T00:13:23;38.20;;;16.98;;
27728;SDS011;15126;42.186;24.340;2024-01-15T00:15:48;37.72;;;14.95;;
27728;SDS011;15126;42.186;24.340;2024-01-15T00:18:14;34.20;;;14.75;;
27728;SDS011;15126;42.186;24.340;2024-01-15T00:20:39;33.08;;;14.27;;
27728;SDS011;15126;42.186;24.340;2024-01-15T00:23:05;39.38;;;14.98;;
27728;SDS011;15126;42.186;24.340;2024-01-15T00:25:30;45.20;;;16.42;;
27728;SDS011;15126;42.186;24.340;2024-01-15T00:27:56;34.35;;;14.32;;
27728;SDS011;15126;42.186;24.340;2024-01-15T00:30:21;41.08;;;16.80;;
27728;SDS011;15126;42.186;24.340;2024-01-15T00:32:47;39.15;;;15.27;;
27728;SDS011;15126;42.186;24.340;2024-01-15T00:35:12;39.70;;;15.45;;
27728;SDS011;15126;42.186;24.340;2024-01-15T00:37:38;38.15;;;17.25;;
27728;SDS011;15126;42.186;24.340;2024-01-15T00:40:04;40.53;;;15.60;;
27728;SDS011;15126;42.186;24.340;2024-01-15T00:42:30;41.28;;;17.27;;
27728;SDS011;15126;42.186;24.340;2024-01-15T00:44:55;35.40;;;16.90;;
27728;SDS011;15126;42.186;24.340;2024-01-15T00:47:21;34.47;;;14.30;;
27728;SDS011;15126;42.186;24.340;2024-01-15T00:49:47;31.13;;;15.38;;
27728;SDS011;15126;42.186;24.340;2024-01-15T00:52:13;39.22;;;17.35;;
27728;SDS011;15126;42.186;24.340;2024-01-15T00:54:38;43.88;;;16.13;;
27728;SDS011;15126;42.186;24.340;2024-01-15T00:57:08;40.40;;;17.23;;
27728;SDS011;15126;42.186;24.340;2024-01-15T00:59:33;40.08;;;16.80;;
27728;SDS011;15126;42.186;24.340;2024-01-15T01:01:59;40.33;;;16.17;;
27728;SDS011;15126;42.186;24.340;2024-01-15T01:04:24;42.65;;;17.90;;
27728;SDS011;15126;42.186;24.340;2024-01-15T01:06:49;41.95;;;17.02;;
27728;SDS011;15126;42.186;24.340;2024-01-15T01:09:15;39.17;;;16.77;;
27728;SDS011;15126;42.186;24.340;2024-01-15T01:11:41;41.15;;;17.40;;
27728;SDS011;15126;42.186;24.340;2024-01-15T01:14:06;36.53;;;16.58;;
27728;SDS011;15126;42.186;24.340;2024-01-15T01:16:31;43.00;;;16.98;;
27728;SDS011;15126;42.186;24.340;2024-01-15T01:19:05;40.83;;;15.55;;
27728;SDS011;15126;42.186;24.340;2024-01-15T01:21:32;33.42;;;15.45;;
27728;SDS011;15126;42.186;24.340;2024-01-15T01:24:01;42.13;;;17.23;;
27728;SDS011;15126;42.186;24.340;2024-01-15T01:26:26;39.58;;;16.33;;
27728;SDS011;15126;42.186;24.340;2024-01-15T01:28:52;32.75;;;14.98;;
27728;SDS011;15126;42.186;24.340;2024-01-15T01:31:17;41.53;;;16.48;;
27728;SDS011;15126;42.186;24.340;2024-01-15T01:33:42;37.42;;;16.70;;
27728;SDS011;15126;42.186;24.340;2024-01-15T01:36:08;44.97;;;18.15;;
27728;SDS011;15126;42.186;24.340;2024-01-15T01:38:34;43.17;;;17.33;;
27728;SDS011;15126;42.186;24.340;2024-01-15T01:41:00;43.35;;;16.17;;
27728;SDS011;15126;42.186;24.340;2024-01-15T01:43:26;41.28;;;16.90;;
27728;SDS011;15126;42.186;24.340;2024-01-15T01:45:51;43.03;;;15.52;;
27728;SDS011;15126;42.186;24.340;2024-01-15T01:48:17;39.38;;;15.45;;
27728;SDS011;15126;42.186;24.340;2024-01-15T01:50:43;38.97;;;16.17;;
27728;SDS011;15126;42.186;24.340;2024-01-15T01:53:10;40.88;;;17.67;;
27728;SDS011;15126;42.186;24.340;2024-01-15T01:55:38;39.92;;;16.73;;
27728;SDS011;15126;42.186;24.340;2024-01-15T01:58:04;41.53;;;17.33;;
27728;SDS011;15126;42.186;24.340;2024-01-15T02:00:30;45.72;;;19.40;;
27728;SDS011;15126;42.186;24.340;2024-01-15T02:02:58;42.00;;;17.48;;
27728;SDS011;15126;42.186;24.340;2024-01-15T02:05:23;51.25;;;19.05;;
27728;SDS011;15126;42.186;24.340;2024-01-15T02:07:49;54.63;;;22.40;;
27728;SDS011;15126;42.186;24.340;2024-01-15T02:10:15;52.50;;;22.15;;
27728;SDS011;15126;42.186;24.340;2024-01-15T02:12:40;52.45;;;20.65;;
27728;SDS011;15126;42.186;24.340;2024-01-15T02:15:07;50.63;;;21.45;;
27728;SDS011;15126;42.186;24.340;2024-01-15T02:17:33;52.83;;;21.10;;
27728;SDS011;15126;42.186;24.340;2024-01-15T02:19:58;52.33;;;21.42;;
27728;SDS011;15126;42.186;24.340;2024-01-15T02:22:24;54.10;;;22.85;;
27728;SDS011;15126;42.186;24.340;2024-01-15T02:24:49;50.55;;;21.90;;
27728;SDS011;15126;42.186;24.340;2024-01-15T02:27:15;53.10;;;22.60;;
27728;SDS011;15126;42.186;24.340;2024-01-15T02:29:40;54.60;;;22.73;;
27728;SDS011;15126;42.186;24.340;2024-01-15T02:32:06;62.25;;;23.27;;
27728;SDS011;15126;42.186;24.340;2024-01-15T02:34:33;46.75;;;20.83;;
27728;SDS011;15126;42.186;24.340;2024-01-15T02:36:59;52.10;;;20.77;;
27728;SDS011;15126;42.186;24.340;2024-01-15T02:39:24;45.25;;;20.77;;
27728;SDS011;15126;42.186;24.340;2024-01-15T02:41:53;52.97;;;21.13;;
27728;SDS011;15126;42.186;24.340;2024-01-15T02:44:21;47.63;;;20.25;;
27728;SDS011;15126;42.186;24.340;2024-01-15T02:46:46;46.28;;;22.02;;
27728;SDS011;15126;42.186;24.340;2024-01-15T02:49:12;49.45;;;22.63;;
27728;SDS011;15126;42.186;24.340;2024-01-15T02:51:37;58.15;;;23.92;;
27728;SDS011;15126;42.186;24.340;2024-01-15T02:54:02;53.53;;;25.13;;
27728;SDS011;15126;42.186;24.340;2024-01-15T02:56:28;61.35;;;23.33;;
27728;SDS011;15126;42.186;24.340;2024-01-15T02:58:53;59.00;;;22.65;;
27728;SDS011;15126;42.186;24.340;2024-01-15T03:01:19;52.95;;;20.92;;
27728;SDS011;15126;42.186;24.340;2024-01-15T03:03:45;56.28;;;22.85;;
27728;SDS011;15126;42.186;24.340;2024-01-15T03:06:10;56.40;;;22.67;;
27728;SDS011;15126;42.186;24.340;2024-01-15T03:08:36;55.20;;;22.65;;
27728;SDS011;15126;42.186;24.340;2024-01-15T03:11:01;53.33;;;20.90;;
27728;SDS011;15126;42.186;24.340;2024-01-15T03:13:27;58.17;;;23.20;;
27728;SDS011;15126;42.186;24.340;2024-01-15T03:15:53;57.58;;;23.35;;
27728;SDS011;15126;42.186;24.340;2024-01-15T03:18:19;45.47;;;19.98;;
27728;SDS011;15126;42.186;24.340;2024-01-15T03:20:44;50.72;;;20.88;;
27728;SDS011;15126;42.186;24.340;2024-01-15T03:23:10;42.50;;;17.05;;
27728;SDS011;15126;42.186;24.340;2024-01-15T03:25:35;44.95;;;18.35;;
27728;SDS011;15126;42.186;24.340;2024-01-15T03:28:01;50.50;;;20.83;;
27728;SDS011;15126;42.186;24.340;2024-01-15T03:30:26;46.33;;;20.77;;
27728;SDS011;15126;42.186;24.340;2024-01-15T03:32:51;55.30;;;22.70;;
27728;SDS011;15126;42.186;24.340;2024-01-15T03:35:17;50.08;;;22.65;;
27728;SDS011;15126;42.186;24.340;2024-01-15T03:37:43;46.65;;;20.30;;
27728;SDS011;15126;42.186;24.340;2024-01-15T03:40:08;52.42;;;20.80;;
27728;SDS011;15126;42.186;24.340;2024-01-15T03:42:34;53.53;;;21.10;;
27728;SDS011;15126;42.186;24.340;2024-01-15T03:45:00;64.35;;;24.35;;
27728;SDS011;15126;42.186;24.340;2024-01-15T03:47:25;54.50;;;22.20;;
27728;SDS011;15126;42.186;24.340;2024-01-15T03:49:51;57.83;;;23.02;;
27728;SDS011;15126;42.186;24.340;2024-01-15T03:52:16;61.72;;;22.05;;
27728;SDS011;15126;42.186;24.340;2024-01-15T03:54:42;54.00;;;22.33;;
27728;SDS011;15126;42.186;24.340;2024-01-15T03:57:07;50.53;;;22.40;;
27728;SDS011;15126;42.186;24.340;2024-01-15T03:59:33;45.97;;;19.90;;
27728;SDS011;15126;42.186;24.340;2024-01-15T04:01:58;49.35;;;21.02;;
27728;SDS011;15126;42.186;24.340;2024-01-15T04:04:24;53.55;;;21.13;;
27728;SDS011;15126;42.186;24.340;2024-01-15T04:06:49;44.30;;;19.95;;
27728;SDS011;15126;42.186;24.340;2024-01-15T04:09:15;59.88;;;22.08;;
27728;SDS011;15126;42.186;24.340;2024-01-15T04:11:43;46.88;;;19.45;;
27728;SDS011;15126;42.186;24.340;2024-01-15T04:14:09;54.13;;;21.40;;
27728;SDS011;15126;42.186;24.340;2024-01-15T04:16:34;49.65;;;21.25;;
27728;SDS011;15126;42.186;24.340;2024-01-15T04:19:00;51.55;;;19.35;;
27728;SDS011;15126;42.186;24.340;2024-01-15T04:21:25;52.33;;;20.55;;
27728;SDS011;15126;42.186;24.340;2024-01-15T04:23:53;55.60;;;23.27;;
27728;SDS011;15126;42.186;24.340;2024-01-15T04:26:18;59.85;;;23.95;;
27728;SDS011;15126;42.186;24.340;2024-01-15T04:28:43;51.38;;;20.45;;
27728;SDS011;15126;42.186;24.340;2024-01-15T04:31:09;44.90;;;19.50;;
27728;SDS011;15126;42.186;24.340;2024-01-15T04:33:34;56.30;;;23.38;;
27728;SDS011;15126;42.186;24.340;2024-01-15T04:36:03;52.55;;;23.50;;
27728;SDS011;15126;42.186;24.340;2024-01-15T04:38:30;58.55;;;23.08;;
27728;SDS011;15126;42.186;24.340;2024-01-15T04:40:58;57.58;;;22.42;;
27728;SDS011;15126;42.186;24.340;2024-01-15T04:43:23;47.63;;;20.83;;
27728;SDS011;15126;42.186;24.340;2024-01-15T04:45:49;55.28;;;20.70;;
27728;SDS011;15126;42.186;24.340;2024-01-15T04:48:14;49.85;;;21.52;;
27728;SDS011;15126;42.186;24.340;2024-01-15T04:50:40;49.42;;;21.35;;
27728;SDS011;15126;42.186;24.340;2024-01-15T04:53:05;45.72;;;20.15;;
27728;SDS011;15126;42.186;24.340;2024-01-15T04:55:31;50.95;;;21.25;;
27728;SDS011;15126;42.186;24.340;2024-01-15T04:57:56;52.05;;;18.83;;
27728;SDS011;15126;42.186;24.340;2024-01-15T05:00:22;40.20;;;17.73;;
27728;SDS011;15126;42.186;24.340;2024-01-15T05:02:47;48.95;;;20.02;;
27728;SDS011;15126;42.186;24.340;2024-01-15T05:05:14;43.17;;;18.98;;
27728;SDS011;15126;42.186;24.340;2024-01-15T05:07:39;47.30;;;20.17;;
27728;SDS011;15126;42.186;24.340;2024-01-15T05:10:05;44.78;;;19.80;;
27728;SDS011;15126;42.186;24.340;2024-01-15T05:12:32;38.88;;;17.35;;
27728;SDS011;15126;42.186;24.340;2024-01-15T05:14:57;43.72;;;18.98;;
27728;SDS011;15126;42.186;24.340;2024-01-15T05:17:23;38.47;;;16.88;;
27728;SDS011;15126;42.186;24.340;2024-01-15T05:19:48;49.45;;;18.30;;
27728;SDS011;15126;42.186;24.340;2024-01-15T05:22:14;56.67;;;23.05;;
27728;SDS011;15126;42.186;24.340;2024-01-15T05:24:39;49.70;;;23.30;;
27728;SDS011;15126;42.186;24.340;2024-01-15T05:27:05;58.58;;;22.10;;
27728;SDS011;15126;42.186;24.340;2024-01-15T05:29:30;61.40;;;23.00;;
27728;SDS011;15126;42.186;24.340;2024-01-15T05:31:56;55.80;;;23.92;;
27728;SDS011;15126;42.186;24.340;2024-01-15T05:34:21;51.63;;;23.38;;
27728;SDS011;15126;42.186;24.340;2024-01-15T05:36:47;53.22;;;22.50;;
27728;SDS011;15126;42.186;24.340;2024-01-15T05:39:13;53.30;;;24.23;;
27728;SDS011;15126;42.186;24.340;2024-01-15T05:41:38;67.40;;;27.60;;
27728;SDS011;15126;42.186;24.340;2024-01-15T05:44:04;63.78;;;27.10;;
27728;SDS011;15126;42.186;24.340;2024-01-15T05:46:30;67.35;;;26.92;;
27728;SDS011;15126;42.186;24.340;2024-01-15T05:48:55;59.17;;;26.58;;
27728;SDS011;15126;42.186;24.340;2024-01-15T05:51:21;52.63;;;20.63;;
27728;SDS011;15126;42.186;24.340;2024-01-15T05:53:46;45.63;;;21.65;;
27728;SDS011;15126;42.186;24.340;2024-01-15T05:56:12;50.20;;;23.70;;
27728;SDS011;15126;42.186;24.340;2024-01-15T05:58:42;51.15;;;24.40;;
27728;SDS011;15126;42.186;24.340;2024-01-15T06:01:08;56.67;;;24.58;;
27728;SDS011;15126;42.186;24.340;2024-01-15T06:03:35;54.22;;;22.02;;
27728;SDS011;15126;42.186;24.340;2024-01-15T06:06:00;41.85;;;18.60;;
27728;SDS011;15126;42.186;24.340;2024-01-15T06:08:28;44.97;;;21.33;;
27728;SDS011;15126;42.186;24.340;2024-01-15T06:10:57;51.47;;;21.85;;
27728;SDS011;15126;42.186;24.340;2024-01-15T06:13:22;45.90;;;20.00;;
27728;SDS011;15126;42.186;24.340;2024-01-15T06:15:51;48.05;;;19.73;;
27728;SDS011;15126;42.186;24.340;2024-01-15T06:18:16;43.05;;;18.38;;
27728;SDS011;15126;42.186;24.340;2024-01-15T06:20:44;49.20;;;22.52;;
27728;SDS011;15126;42.186;24.340;2024-01-15T06:23:13;50.83;;;20.27;;
27728;SDS011;15126;42.186;24.340;2024-01-15T06:25:38;56.85;;;21.85;;
27728;SDS011;15126;42.186;24.340;2024-01-15T06:28:04;47.97;;;20.58;;
27728;SDS011;15126;42.186;24.340;2024-01-15T06:30:30;49.72;;;20.02;;
27728;SDS011;15126;42.186;24.340;2024-01-15T06:32:58;48.97;;;19.65;;
27728;SDS011;15126;42.186;24.340;2024-01-15T06:35:23;48.22;;;22.95;;
27728;SDS011;15126;42.186;24.340;2024-01-15T06:37:49;46.60;;;20.27;;
27728;SDS011;15126;42.186;24.340;2024-01-15T06:40:14;45.63;;;19.00;;
27728;SDS011;15126;42.186;24.340;2024-01-15T06:42:42;49.08;;;20.90;;
27728;SDS011;15126;42.186;24.340;2024-01-15T06:45:08;46.33;;;20.52;;
27728;SDS011;15126;42.186;24.340;2024-01-15T06:47:34;53.78;;;23.70;;
27728;SDS011;15126;42.186;24.340;2024-01-15T06:50:02;56.42;;;23.95;;
27728;SDS011;15126;42.186;24.340;2024-01-15T06:52:32;51.03;;;21.75;;
27728;SDS011;15126;42.186;24.340;2024-01-15T06:55:00;55.83;;;22.95;;
27728;SDS011;15126;42.186;24.340;2024-01-15T06:57:28;71.82;;;30.33;;
27728;SDS011;15126;42.186;24.340;2024-01-15T06:59:54;55.00;;;23.05;;
27728;SDS011;15126;42.186;24.340;2024-01-15T07:02:24;48.83;;;23.70;;
27728;SDS011;15126;42.186;24.340;2024-01-15T07:04:51;55.13;;;23.75;;
27728;SDS011;15126;42.186;24.340;2024-01-15T07:07:17;50.50;;;21.98;;
27728;SDS011;15126;42.186;24.340;2024-01-15T07:09:45;52.08;;;24.30;;
27728;SDS011;15126;42.186;24.340;2024-01-15T07:12:13;50.53;;;22.20;;
27728;SDS011;15126;42.186;24.340;2024-01-15T07:14:39;54.17;;;22.85;;
27728;SDS011;15126;42.186;24.340;2024-01-15T07:17:04;51.55;;;21.10;;
27728;SDS011;15126;42.186;24.340;2024-01-15T07:19:30;50.75;;;22.17;;
27728;SDS011;15126;42.186;24.340;2024-01-15T07:21:55;46.25;;;22.27;;
27728;SDS011;15126;42.186;24.340;2024-01-15T07:24:21;50.53;;;21.95;;
27728;SDS011;15126;42.186;24.340;2024-01-15T07:26:46;43.78;;;21.17;;
27728;SDS011;15126;42.186;24.340;2024-01-15T07:29:12;48.40;;;21.30;;
27728;SDS011;15126;42.186;24.340;2024-01-15T07:31:40;53.95;;;22.55;;
27728;SDS011;15126;42.186;24.340;2024-01-15T07:34:05;58.00;;;24.83;;
27728;SDS011;15126;42.186;24.340;2024-01-15T07:36:31;50.08;;;23.08;;
27728;SDS011;15126;42.186;24.340;2024-01-15T07:39:05;51.33;;;23.30;;
27728;SDS011;15126;42.186;24.340;2024-01-15T07:41:31;62.30;;;25.67;;
27728;SDS011;15126;42.186;24.340;2024-01-15T07:43:57;44.92;;;20.98;;
27728;SDS011;15126;42.186;24.340;2024-01-15T07:46:28;58.45;;;25.02;;
27728;SDS011;15126;42.186;24.340;2024-01-15T07:48:54;52.47;;;21.15;;
27728;SDS011;15126;42.186;24.340;2024-01-15T07:51:25;52.88;;;24.17;;
27728;SDS011;15126;42.186;24.340;2024-01-15T07:53:54;49.10;;;23.02;;
27728;SDS011;15126;42.186;24.340;2024-01-15T07:56:25;74.65;;;30.33;;
27728;SDS011;15126;42.186;24.340;2024-01-15T07:58:52;67.88;;;26.95;;
27728;SDS011;15126;42.186;24.340;2024-01-15T08:01:20;53.05;;;26.13;;
27728;SDS011;15126;42.186;24.340;2024-01-15T08:03:45;58.33;;;26.73;;
27728;SDS011;15126;42.186;24.340;2024-01-15T08:06:10;54.45;;;26.08;;
27728;SDS011;15126;42.186;24.340;2024-01-15T08:08:39;57.78;;;28.00;;
27728;SDS011;15126;42.186;24.340;2024-01-15T08:11:05;61.40;;;25.52;;
27728;SDS011;15126;42.186;24.340;2024-01-15T08:13:30;56.95;;;26.83;;
27728;SDS011;15126;42.186;24.340;2024-01-15T08:15:56;60.72;;;26.25;;
27728;SDS011;15126;42.186;24.340;2024-01-15T08:18:22;57.40;;;25.45;;
27728;SDS011;15126;42.186;24.340;2024-01-15T08:20:48;56.30;;;25.90;;
27728;SDS011;15126;42.186;24.340;2024-01-15T08:23:14;63.00;;;26.80;;
27728;SDS011;15126;42.186;24.340;2024-01-15T08:25:40;59.17;;;28.63;;
27728;SDS011;15126;42.186;24.340;2024-01-15T08:28:08;65.35;;;26.80;;
27728;SDS011;15126;42.186;24.340;2024-01-15T08:30:35;57.67;;;26.50;;
27728;SDS011;15126;42.186;24.340;2024-01-15T08:33:00;66.07;;;26.85;;
27728;SDS011;15126;42.186;24.340;2024-01-15T08:35:26;58.45;;;27.67;;
27728;SDS011;15126;42.186;24.340;2024-01-15T08:37:52;60.25;;;25.60;;
27728;SDS011;15126;42.186;24.340;2024-01-15T08:40:18;67.97;;;28.75;;
27728;SDS011;15126;42.186;24.340;2024-01-15T08:42:45;66.05;;;27.90;;
27728;SDS011;15126;42.186;24.340;2024-01-15T08:45:14;57.85;;;25.35;;
27728;SDS011;15126;42.186;24.340;2024-01-15T08:47:46;57.75;;;24.55;;
27728;SDS011;15126;42.186;24.340;2024-01-15T08:50:14;57.85;;;26.80;;
27728;SDS011;15126;42.186;24.340;2024-01-15T08:52:47;53.45;;;24.45;;
27728;SDS011;15126;42.186;24.340;2024-01-15T08:55:12;61.40;;;27.60;;
27728;SDS011;15126;42.186;24.340;2024-01-15T08:57:38;51.63;;;24.30;;
27728;SDS011;15126;42.186;24.340;2024-01-15T09:00:06;55.42;;;27.70;;
27728;SDS011;15126;42.186;24.340;2024-01-15T09:02:33;47.78;;;22.73;;
27728;SDS011;15126;42.186;24.340;2024-01-15T09:05:02;60.80;;;22.65;;
27728;SDS011;15126;42.186;24.340;2024-01-15T09:07:29;44.67;;;22.83;;
27728;SDS011;15126;42.186;24.340;2024-01-15T09:09:55;51.40;;;21.52;;
27728;SDS011;15126;42.186;24.340;2024-01-15T09:12:26;51.03;;;22.48;;
27728;SDS011;15126;42.186;24.340;2024-01-15T09:14:54;49.33;;;20.30;;
27728;SDS011;15126;42.186;24.340;2024-01-15T09:17:21;48.65;;;22.92;;
27728;SDS011;15126;42.186;24.340;2024-01-15T09:19:48;44.95;;;20.33;;
27728;SDS011;15126;42.186;24.340;2024-01-15T09:22:14;46.72;;;20.05;;
27728;SDS011;15126;42.186;24.340;2024-01-15T09:24:42;46.13;;;19.63;;
27728;SDS011;15126;42.186;24.340;2024-01-15T09:27:11;39.78;;;19.77;;
27728;SDS011;15126;42.186;24.340;2024-01-15T09:30:00;43.20;;;19.38;;
27728;SDS011;15126;42.186;24.340;2024-01-15T09:32:28;41.45;;;19.55;;
27728;SDS011;15126;42.186;24.340;2024-01-15T09:34:53;39.97;;;20.13;;
27728;SDS011;15126;42.186;24.340;2024-01-15T09:37:19;45.08;;;19.30;;
27728;SDS011;15126;42.186;24.340;2024-01-15T09:39:47;46.25;;;20.20;;
27728;SDS011;15126;42.186;24.340;2024-01-15T09:44:41;35.03;;;15.65;;
27728;SDS011;15126;42.186;24.340;2024-01-15T09:47:07;35.65;;;15.95;;
27728;SDS011;15126;42.186;24.340;2024-01-15T09:51:59;33.28;;;15.93;;
27728;SDS011;15126;42.186;24.340;2024-01-15T09:54:27;37.60;;;17.20;;
27728;SDS011;15126;42.186;24.340;2024-01-15T09:56:55;37.50;;;18.15;;
27728;SDS011;15126;42.186;24.340;2024-01-15T09:59:23;38.47;;;15.57;;
27728;SDS011;15126;42.186;24.340;2024-01-15T10:01:50;33.72;;;14.98;;
27728;SDS011;15126;42.186;24.340;2024-01-15T10:04:15;32.17;;;14.70;;
27728;SDS011;15126;42.186;24.340;2024-01-15T10:06:47;32.88;;;15.93;;
27728;SDS011;15126;42.186;24.340;2024-01-15T10:09:15;37.38;;;15.55;;
27728;SDS011;15126;42.186;24.340;2024-01-15T10:11:41;33.92;;;16.08;;
27728;SDS011;15126;42.186;24.340;2024-01-15T10:14:10;37.10;;;15.63;;
27728;SDS011;15126;42.186;24.340;2024-01-15T10:16:40;41.22;;;18.15;;
27728;SDS011;15126;42.186;24.340;2024-01-15T10:19:09;32.78;;;13.90;;
27728;SDS011;15126;42.186;24.340;2024-01-15T10:21:36;26.25;;;12.25;;
27728;SDS011;15126;42.186;24.340;2024-01-15T10:26:28;26.42;;;11.65;;
27728;SDS011;15126;42.186;24.340;2024-01-15T10:31:20;23.83;;;10.60;;
27728;SDS011;15126;42.186;24.340;2024-01-15T10:33:49;27.40;;;11.60;;
27728;SDS011;15126;42.186;24.340;2024-01-15T10:36:15;25.17;;;11.07;;
27728;SDS011;15126;42.186;24.340;2024-01-15T10:38:45;25.25;;;12.07;;
27728;SDS011;15126;42.186;24.340;2024-01-15T10:41:11;26.88;;;12.65;;
27728;SDS011;15126;42.186;24.340;2024-01-15T10:43:37;33.80;;;14.18;;
27728;SDS011;15126;42.186;24.340;2024-01-15T10:46:03;27.95;;;12.68;;
27728;SDS011;15126;42.186;24.340;2024-01-15T10:48:29;28.63;;;12.45;;
27728;SDS011;15126;42.186;24.340;2024-01-15T10:50:56;34.50;;;14.38;;
27728;SDS011;15126;42.186;24.340;2024-01-15T10:53:23;32.42;;;14.60;;
27728;SDS011;15126;42.186;24.340;2024-01-15T10:55:50;31.08;;;12.80;;
27728;SDS011;15126;42.186;24.340;2024-01-15T10:58:16;26.30;;;13.38;;
27728;SDS011;15126;42.186;24.340;2024-01-15T11:00:43;38.05;;;17.55;;
27728;SDS011;15126;42.186;24.340;2024-01-15T11:03:09;37.25;;;15.35;;
27728;SDS011;15126;42.186;24.340;2024-01-15T11:05:42;41.92;;;17.83;;
27728;SDS011;15126;42.186;24.340;2024-01-15T11:08:09;31.75;;;15.40;;
27728;SDS011;15126;42.186;24.340;2024-01-15T11:10:50;46.40;;;19.35;;
27728;SDS011;15126;42.186;24.340;2024-01-15T11:13:20;36.33;;;16.02;;
27728;SDS011;15126;42.186;24.340;2024-01-15T11:18:31;37.78;;;17.48;;
27728;SDS011;15126;42.186;24.340;2024-01-15T11:29:07;69.90;;;30.85;;
27728;SDS011;15126;42.186;24.340;2024-01-15T11:32:03;33.83;;;16.27;;
27728;SDS011;15126;42.186;24.340;2024-01-15T11:37:26;29.35;;;13.93;;
27728;SDS011;15126;42.186;24.340;2024-01-15T11:39:53;34.78;;;14.55;;
27728;SDS011;15126;42.186;24.340;2024-01-15T11:42:20;40.42;;;15.95;;
27728;SDS011;15126;42.186;24.340;2024-01-15T11:44:47;57.88;;;26.35;;
27728;SDS011;15126;42.186;24.340;2024-01-15T11:47:14;155.60;;;70.85;;
27728;SDS011;15126;42.186;24.340;2024-01-15T11:49:47;54.83;;;25.17;;
27728;SDS011;15126;42.186;24.340;2024-01-15T11:52:19;32.78;;;16.83;;
27728;SDS011;15126;42.186;24.340;2024-01-15T11:55:34;46.65;;;18.77;;
27728;SDS011;15126;42.186;24.340;2024-01-15T11:57:41;43.20;;;19.70;;
27728;SDS011;15126;42.186;24.340;2024-01-15T12:00:19;37.95;;;17.60;;
27728;SDS011;15126;42.186;24.340;2024-01-15T12:02:47;34.15;;;16.98;;
27728;SDS011;15126;42.186;24.340;2024-01-15T12:05:20;32.17;;;14.57;;
27728;SDS011;15126;42.186;24.340;2024-01-15T12:07:46;37.28;;;15.43;;
27728;SDS011;15126;42.186;24.340;2024-01-15T12:10:14;29.73;;;15.63;;
27728;SDS011;15126;42.186;24.340;2024-01-15T12:12:47;27.13;;;13.55;;
27728;SDS011;15126;42.186;24.340;2024-01-15T12:15:32;32.05;;;13.50;;
27728;SDS011;15126;42.186;24.340;2024-01-15T12:20:34;35.72;;;15.20;;
27728;SDS011;15126;42.186;24.340;2024-01-15T12:23:00;33.05;;;15.63;;
27728;SDS011;15126;42.186;24.340;2024-01-15T12:25:28;31.83;;;15.35;;
27728;SDS011;15126;42.186;24.340;2024-01-15T12:27:55;40.42;;;16.88;;
27728;SDS011;15126;42.186;24.340;2024-01-15T12:30:23;28.65;;;13.98;;
27728;SDS011;15126;42.186;24.340;2024-01-15T12:32:54;30.83;;;15.25;;
27728;SDS011;15126;42.186;24.340;2024-01-15T12:35:20;31.00;;;14.23;;
27728;SDS011;15126;42.186;24.340;2024-01-15T12:37:49;33.35;;;14.98;;
27728;SDS011;15126;42.186;24.340;2024-01-15T12:40:18;27.65;;;13.35;;
27728;SDS011;15126;42.186;24.340;2024-01-15T12:42:45;31.02;;;15.93;;
27728;SDS011;15126;42.186;24.340;2024-01-15T12:45:11;35.13;;;17.25;;
27728;SDS011;15126;42.186;24.340;2024-01-15T12:47:41;34.67;;;15.38;;
27728;SDS011;15126;42.186;24.340;2024-01-15T12:50:12;38.03;;;17.13;;
27728;SDS011;15126;42.186;24.340;2024-01-15T12:52:41;45.63;;;19.70;;
27728;SDS011;15126;42.186;24.340;2024-01-15T12:55:08;35.97;;;18.67;;
27728;SDS011;15126;42.186;24.340;2024-01-15T12:57:35;37.42;;;19.10;;
27728;SDS011;15126;42.186;24.340;2024-01-15T13:00:04;37.05;;;18.27;;
27728;SDS011;15126;42.186;24.340;2024-01-15T13:02:37;40.60;;;17.10;;
27728;SDS011;15126;42.186;24.340;2024-01-15T13:05:09;35.55;;;17.33;;
27728;SDS011;15126;42.186;24.340;2024-01-15T13:07:36;34.53;;;16.30;;
27728;SDS011;15126;42.186;24.340;2024-01-15T13:10:05;40.67;;;17.45;;
27728;SDS011;15126;42.186;24.340;2024-01-15T13:12:34;36.60;;;15.70;;
27728;SDS011;15126;42.186;24.340;2024-01-15T13:15:00;39.72;;;17.27;;
27728;SDS011;15126;42.186;24.340;2024-01-15T13:17:31;35.88;;;17.23;;
27728;SDS011;15126;42.186;24.340;2024-01-15T13:19:57;40.78;;;19.38;;
27728;SDS011;15126;42.186;24.340;2024-01-15T13:22:23;37.58;;;17.15;;
27728;SDS011;15126;42.186;24.340;2024-01-15T13:24:54;34.35;;;16.45;;
27728;SDS011;15126;42.186;24.340;2024-01-15T13:27:20;33.05;;;15.25;;
27728;SDS011;15126;42.186;24.340;2024-01-15T13:29:47;32.38;;;14.38;;
27728;SDS011;15126;42.186;24.340;2024-01-15T13:32:13;36.70;;;14.98;;
27728;SDS011;15126;42.186;24.340;2024-01-15T13:34:47;34.97;;;15.43;;
27728;SDS011;15126;42.186;24.340;2024-01-15T13:37:13;38.38;;;18.02;;
27728;SDS011;15126;42.186;24.340;2024-01-15T13:39:39;45.53;;;18.15;;
27728;SDS011;15126;42.186;24.340;2024-01-15T13:42:04;30.98;;;15.35;;
27728;SDS011;15126;42.186;24.340;2024-01-15T13:44:30;29.08;;;13.63;;
27728;SDS011;15126;42.186;24.340;2024-01-15T13:46:55;25.88;;;13.13;;
27728;SDS011;15126;42.186;24.340;2024-01-15T13:49:23;30.27;;;14.98;;
27728;SDS011;15126;42.186;24.340;2024-01-15T13:51:49;30.77;;;13.82;;
27728;SDS011;15126;42.186;24.340;2024-01-15T13:54:15;33.70;;;13.95;;
27728;SDS011;15126;42.186;24.340;2024-01-15T13:56:40;27.55;;;11.27;;
27728;SDS011;15126;42.186;24.340;2024-01-15T13:59:09;28.15;;;13.70;;
27728;SDS011;15126;42.186;24.340;2024-01-15T14:01:34;33.10;;;15.80;;
27728;SDS011;15126;42.186;24.340;2024-01-15T14:04:00;27.88;;;12.63;;
27728;SDS011;15126;42.186;24.340;2024-01-15T14:06:29;28.17;;;12.60;;
27728;SDS011;15126;42.186;24.340;2024-01-15T14:08:55;34.42;;;15.20;;
27728;SDS011;15126;42.186;24.340;2024-01-15T14:11:21;29.45;;;14.38;;
27728;SDS011;15126;42.186;24.340;2024-01-15T14:13:48;30.35;;;13.70;;
27728;SDS011;15126;42.186;24.340;2024-01-15T14:16:13;31.30;;;13.05;;
27728;SDS011;15126;42.186;24.340;2024-01-15T14:18:39;34.38;;;14.65;;
27728;SDS011;15126;42.186;24.340;2024-01-15T14:21:04;35.10;;;14.65;;
27728;SDS011;15126;42.186;24.340;2024-01-15T14:23:30;35.83;;;15.20;;
27728;SDS011;15126;42.186;24.340;2024-01-15T14:25:56;35.97;;;14.48;;
27728;SDS011;15126;42.186;24.340;2024-01-15T14:28:24;28.00;;;12.20;;
27728;SDS011;15126;42.186;24.340;2024-01-15T14:30:49;31.40;;;13.98;;
27728;SDS011;15126;42.186;24.340;2024-01-15T14:33:15;29.52;;;13.68;;